sensor_id;sensor_type;location;lat;lon;timestamp;pressure;altitude;pressure_sealevel;temperature;humidity
64889;BME280;51386;53.082;8.816;2023-02-12T00:00:09;103541.63;;;13.77;62.40
64889;BME280;51386;53.082;8.816;2023-02-12T00:02:37;103546.94;;;13.77;62.30
64889;BME280;51386;53.082;8.816;2023-02-12T00:05:05;103544.41;;;13.75;62.45
64889;BME280;51386;53.082;8.816;2023-02-12T00:07:33;103560.31;;;13.75;62.45
64889;BME280;51386;53.082;8.816;2023-02-12T00:10:00;103566.44;;;13.76;62.40
64889;BME280;51386;53.082;8.816;2023-02-12T00:12:27;103563.91;;;13.74;62.46
64889;BME280;51386;53.082;8.816;2023-02-12T00:14:54;103569.09;;;13.76;62.35
64889;BME280;51386;53.082;8.816;2023-02-12T00:17:21;103572.44;;;13.78;62.49
64889;BME280;51386;53.082;8.816;2023-02-12T00:19:48;103574.84;;;13.81;62.54
64889;BME280;51386;53.082;8.816;2023-02-12T00:22:15;103578.31;;;13.81;62.46
64889;BME280;51386;53.082;8.816;2023-02-12T00:24:43;103578.22;;;13.83;62.64
64889;BME280;51386;53.082;8.816;2023-02-12T00:27:10;103580.72;;;13.84;62.50
64889;BME280;51386;53.082;8.816;2023-02-12T00:29:37;103586.88;;;13.85;62.42
64889;BME280;51386;53.082;8.816;2023-02-12T00:32:04;103585.16;;;13.84;62.42
64889;BME280;51386;53.082;8.816;2023-02-12T00:34:31;103591.31;;;13.84;62.24
64889;BME280;51386;53.082;8.816;2023-02-12T00:36:58;103586.88;;;13.85;62.75
64889;BME280;51386;53.082;8.816;2023-02-12T00:39:25;103586.88;;;13.85;62.20
64889;BME280;51386;53.082;8.816;2023-02-12T00:41:53;103587.09;;;13.82;62.30
64889;BME280;51386;53.082;8.816;2023-02-12T00:44:20;103589.19;;;13.78;62.31
64889;BME280;51386;53.082;8.816;2023-02-12T00:46:47;103589.28;;;13.77;62.34
64889;BME280;51386;53.082;8.816;2023-02-12T00:49:14;103595.66;;;13.74;62.37
64889;BME280;51386;53.082;8.816;2023-02-12T00:51:41;103594.09;;;13.72;62.40
64889;BME280;51386;53.082;8.816;2023-02-12T00:54:08;103588.09;;;13.70;62.59
64889;BME280;51386;53.082;8.816;2023-02-12T00:56:35;103586.53;;;13.67;62.53
64889;BME280;51386;53.082;8.816;2023-02-12T00:59:03;103583.19;;;13.65;62.43
64889;BME280;51386;53.082;8.816;2023-02-12T01:01:30;103593.91;;;13.64;62.41
64889;BME280;51386;53.082;8.816;2023-02-12T01:03:57;103587.91;;;13.62;62.48
64889;BME280;51386;53.082;8.816;2023-02-12T01:06:24;103594.16;;;13.61;62.58
64889;BME280;51386;53.082;8.816;2023-02-12T01:08:52;103590.78;;;13.58;62.73
64889;BME280;51386;53.082;8.816;2023-02-12T01:11:19;103592.72;;;13.56;62.60
64889;BME280;51386;53.082;8.816;2023-02-12T01:13:46;103592.72;;;13.56;62.70
64889;BME280;51386;53.082;8.816;2023-02-12T01:16:18;103592.72;;;13.56;62.57
64889;BME280;51386;53.082;8.816;2023-02-12T01:18:47;103593.56;;;13.57;62.78
64889;BME280;51386;53.082;8.816;2023-02-12T01:21:17;103601.38;;;13.58;62.65
64889;BME280;51386;53.082;8.816;2023-02-12T01:23:46;103601.38;;;13.58;62.77
64889;BME280;51386;53.082;8.816;2023-02-12T01:26:15;103603.06;;;13.60;62.60
64889;BME280;51386;53.082;8.816;2023-02-12T01:28:47;103600.28;;;13.61;62.58
64889;BME280;51386;53.082;8.816;2023-02-12T01:31:19;103593.31;;;13.60;62.43
64889;BME280;51386;53.082;8.816;2023-02-12T01:33:48;103591.50;;;13.61;62.36
64889;BME280;51386;53.082;8.816;2023-02-12T01:36:15;103599.44;;;13.61;62.74
64889;BME280;51386;53.082;8.816;2023-02-12T01:38:42;103594.16;;;13.61;62.42
64889;BME280;51386;53.082;8.816;2023-02-12T01:41:13;103601.94;;;13.62;62.60
64889;BME280;51386;53.082;8.816;2023-02-12T01:43:41;103603.66;;;13.63;62.57
64889;BME280;51386;53.082;8.816;2023-02-12T01:46:13;103605.22;;;13.66;62.53
64889;BME280;51386;53.082;8.816;2023-02-12T01:48:45;103602.56;;;13.66;62.30
64889;BME280;51386;53.082;8.816;2023-02-12T01:51:18;103603.50;;;13.65;62.35
64889;BME280;51386;53.082;8.816;2023-02-12T01:53:50;103597.50;;;13.63;62.25
64889;BME280;51386;53.082;8.816;2023-02-12T01:56:18;103609.06;;;13.62;62.31
64889;BME280;51386;53.082;8.816;2023-02-12T01:58:47;103597.78;;;13.60;62.45
64889;BME280;51386;53.082;8.816;2023-02-12T02:01:20;103592.72;;;13.56;62.29
64889;BME280;51386;53.082;8.816;2023-02-12T02:03:54;103596.31;;;13.55;62.42
64889;BME280;51386;53.082;8.816;2023-02-12T02:06:27;103587.91;;;13.50;62.10
64889;BME280;51386;53.082;8.816;2023-02-12T02:08:57;103587.91;;;13.50;62.53
64889;BME280;51386;53.082;8.816;2023-02-12T02:11:24;103602.13;;;13.49;62.49
64889;BME280;51386;53.082;8.816;2023-02-12T02:14:09;103591.06;;;13.44;62.61
64889;BME280;51386;53.082;8.816;2023-02-12T02:17:21;103591.66;;;13.37;62.31
64889;BME280;51386;53.082;8.816;2023-02-12T02:20:15;103587.47;;;13.34;62.46
64889;BME280;51386;53.082;8.816;2023-02-12T02:22:58;103582.16;;;13.34;62.59
64889;BME280;51386;53.082;8.816;2023-02-12T02:25:50;103584.09;;;13.32;62.46
64889;BME280;51386;53.082;8.816;2023-02-12T02:28:51;103583.38;;;13.30;62.44
64889;BME280;51386;53.082;8.816;2023-02-12T02:31:29;103581.81;;;13.28;62.47
64889;BME280;51386;53.082;8.816;2023-02-12T02:34:08;103582.19;;;13.23;62.70
64889;BME280;51386;53.082;8.816;2023-02-12T02:36:44;103578.09;;;13.19;62.66
64889;BME280;51386;53.082;8.816;2023-02-12T02:39:34;103581.72;;;13.18;62.44
64889;BME280;51386;53.082;8.816;2023-02-12T02:42:10;103577.38;;;13.17;62.63
64889;BME280;51386;53.082;8.816;2023-02-12T02:44:47;103574.72;;;13.17;62.69
64889;BME280;51386;53.082;8.816;2023-02-12T02:47:21;103581.94;;;13.15;62.65
64889;BME280;51386;53.082;8.816;2023-02-12T02:49:55;103582.94;;;13.14;62.88
64889;BME280;51386;53.082;8.816;2023-02-12T02:52:30;103585.56;;;13.14;62.81
64889;BME280;51386;53.082;8.816;2023-02-12T02:55:05;103584.72;;;13.14;62.57
64889;BME280;51386;53.082;8.816;2023-02-12T02:57:38;103578.59;;;13.13;62.77
64889;BME280;51386;53.082;8.816;2023-02-12T03:00:14;103585.56;;;13.14;62.88
64889;BME280;51386;53.082;8.816;2023-02-12T03:02:52;103589.03;;;13.15;62.76
64889;BME280;51386;53.082;8.816;2023-02-12T03:05:25;103583.63;;;13.16;62.81
64889;BME280;51386;53.082;8.816;2023-02-12T03:07:59;103589.78;;;13.17;62.60
64889;BME280;51386;53.082;8.816;2023-02-12T03:10:33;103585.31;;;13.17;62.67
64889;BME280;51386;53.082;8.816;2023-02-12T03:13:09;103588.94;;;13.16;62.65
64889;BME280;51386;53.082;8.816;2023-02-12T03:15:44;103590.84;;;13.14;62.07
64889;BME280;51386;53.082;8.816;2023-02-12T03:18:20;103587.47;;;13.12;62.68
64889;BME280;51386;53.082;8.816;2023-02-12T03:20:54;103588.44;;;13.11;62.76
64889;BME280;51386;53.082;8.816;2023-02-12T03:23:29;103590.25;;;13.11;62.69
64889;BME280;51386;53.082;8.816;2023-02-12T03:26:04;103593.72;;;13.11;62.64
64889;BME280;51386;53.082;8.816;2023-02-12T03:28:35;103594.44;;;13.13;62.78
64889;BME280;51386;53.082;8.816;2023-02-12T03:31:13;103592.66;;;13.14;62.75
64889;BME280;51386;53.082;8.816;2023-02-12T03:33:58;103600.69;;;13.12;62.61
64889;BME280;51386;53.082;8.816;2023-02-12T03:36:39;103601.91;;;13.08;62.68
64889;BME280;51386;53.082;8.816;2023-02-12T03:39:16;103607.19;;;13.08;62.68
64889;BME280;51386;53.082;8.816;2023-02-12T03:41:52;103604.53;;;13.08;62.67
64889;BME280;51386;53.082;8.816;2023-02-12T03:44:36;103600.25;;;13.07;62.63
64889;BME280;51386;53.082;8.816;2023-02-12T03:47:18;103606.34;;;13.08;62.64
64889;BME280;51386;53.082;8.816;2023-02-12T03:49:55;103608.03;;;13.09;62.48
64889;BME280;51386;53.082;8.816;2023-02-12T03:52:25;103606.97;;;13.11;62.47
64889;BME280;51386;53.082;8.816;2023-02-12T03:54:52;103613.09;;;13.12;62.46
64889;BME280;51386;53.082;8.816;2023-02-12T03:57:23;103610.56;;;13.10;62.43
64889;BME280;51386;53.082;8.816;2023-02-12T03:59:57;103617.53;;;13.11;62.34
64889;BME280;51386;53.082;8.816;2023-02-12T04:02:24;103620.91;;;13.13;62.73
64889;BME280;51386;53.082;8.816;2023-02-12T04:04:53;103621.50;;;13.17;62.49
64889;BME280;51386;53.082;8.816;2023-02-12T04:07:20;103623.31;;;13.16;62.35
64889;BME280;51386;53.082;8.816;2023-02-12T04:09:47;103624.25;;;13.15;62.46
64889;BME280;51386;53.082;8.816;2023-02-12T04:12:32;103625.59;;;13.10;62.20
64889;BME280;51386;53.082;8.816;2023-02-12T04:15:17;103626.41;;;13.10;62.42
64889;BME280;51386;53.082;8.816;2023-02-12T04:17:55;103620.03;;;13.13;62.25
64889;BME280;51386;53.082;8.816;2023-02-12T04:20:33;103620.66;;;13.16;62.36
64889;BME280;51386;53.082;8.816;2023-02-12T04:23:15;103621.50;;;13.17;62.23
64889;BME280;51386;53.082;8.816;2023-02-12T04:25:56;103624.03;;;13.18;62.38
64889;BME280;51386;53.082;8.816;2023-02-12T04:28:40;103624.03;;;13.18;62.15
64889;BME280;51386;53.082;8.816;2023-02-12T04:31:20;103629.31;;;13.18;62.16
64889;BME280;51386;53.082;8.816;2023-02-12T04:34:03;103625.81;;;13.18;62.20
64889;BME280;51386;53.082;8.816;2023-02-12T04:36:43;103629.31;;;13.18;62.18
64889;BME280;51386;53.082;8.816;2023-02-12T04:39:20;103624.88;;;13.19;62.28
64889;BME280;51386;53.082;8.816;2023-02-12T04:41:48;103632.69;;;13.20;62.29
64889;BME280;51386;53.082;8.816;2023-02-12T04:44:18;103621.25;;;13.20;62.16
64889;BME280;51386;53.082;8.816;2023-02-12T04:46:48;103627.16;;;13.23;62.45
64889;BME280;51386;53.082;8.816;2023-02-12T04:49:17;103630.53;;;13.25;62.47
64889;BME280;51386;53.082;8.816;2023-02-12T04:51:48;103628.59;;;13.27;62.37
64889;BME280;51386;53.082;8.816;2023-02-12T04:54:17;103631.22;;;13.27;62.21
64889;BME280;51386;53.082;8.816;2023-02-12T04:56:45;103627.63;;;13.28;62.17
64889;BME280;51386;53.082;8.816;2023-02-12T04:59:12;103620.41;;;13.30;62.15
64889;BME280;51386;53.082;8.816;2023-02-12T05:01:42;103622.84;;;13.33;62.19
64889;BME280;51386;53.082;8.816;2023-02-12T05:04:12;103620.06;;;13.35;62.19
64889;BME280;51386;53.082;8.816;2023-02-12T05:06:41;103622.56;;;13.36;62.01
64889;BME280;51386;53.082;8.816;2023-02-12T05:09:15;103617.28;;;13.36;62.02
64889;BME280;51386;53.082;8.816;2023-02-12T05:11:42;103615.59;;;13.35;62.18
64889;BME280;51386;53.082;8.816;2023-02-12T05:14:10;103620.91;;;13.35;62.15
64889;BME280;51386;53.082;8.816;2023-02-12T05:16:37;103621.84;;;13.34;62.09
64889;BME280;51386;53.082;8.816;2023-02-12T05:19:04;103619.22;;;13.34;62.18
64889;BME280;51386;53.082;8.816;2023-02-12T05:21:31;103622.94;;;13.32;62.25
64889;BME280;51386;53.082;8.816;2023-02-12T05:24:00;103617.78;;;13.30;62.22
64889;BME280;51386;53.082;8.816;2023-02-12T05:26:28;103617.63;;;13.32;62.26
64889;BME280;51386;53.082;8.816;2023-02-12T05:28:55;103618.50;;;13.32;62.22
64889;BME280;51386;53.082;8.816;2023-02-12T05:31:22;103619.34;;;13.33;62.22
64889;BME280;51386;53.082;8.816;2023-02-12T05:33:49;103621.13;;;13.32;62.33
64889;BME280;51386;53.082;8.816;2023-02-12T05:36:19;103628.13;;;13.33;62.09
64889;BME280;51386;53.082;8.816;2023-02-12T05:38:50;103626.44;;;13.32;62.21
64889;BME280;51386;53.082;8.816;2023-02-12T05:41:20;103623.06;;;13.30;62.33
64889;BME280;51386;53.082;8.816;2023-02-12T05:43:49;103621.38;;;13.29;62.35
64889;BME280;51386;53.082;8.816;2023-02-12T05:46:18;103626.78;;;13.28;61.97
64889;BME280;51386;53.082;8.816;2023-02-12T05:48:46;103631.47;;;13.24;62.22
64889;BME280;51386;53.082;8.816;2023-02-12T05:51:16;103634.38;;;13.21;62.15
64889;BME280;51386;53.082;8.816;2023-02-12T05:53:43;103634.59;;;13.18;62.46
64889;BME280;51386;53.082;8.816;2023-02-12T05:56:13;103634.84;;;13.15;62.38
64889;BME280;51386;53.082;8.816;2023-02-12T05:58:43;103639.41;;;13.13;62.46
64889;BME280;51386;53.082;8.816;2023-02-12T06:01:15;103640.34;;;13.12;62.50
64889;BME280;51386;53.082;8.816;2023-02-12T06:03:43;103647.56;;;13.10;62.47
64889;BME280;51386;53.082;8.816;2023-02-12T06:06:11;103645.91;;;13.09;62.38
64889;BME280;51386;53.082;8.816;2023-02-12T06:08:38;103652.03;;;13.10;62.61
64889;BME280;51386;53.082;8.816;2023-02-12T06:11:09;103657.19;;;13.11;62.55
64889;BME280;51386;53.082;8.816;2023-02-12T06:13:36;103656.97;;;13.14;62.45
64889;BME280;51386;53.082;8.816;2023-02-12T06:16:04;103654.19;;;13.16;62.49
64889;BME280;51386;53.082;8.816;2023-02-12T06:18:35;103656.00;;;13.15;62.53
64889;BME280;51386;53.082;8.816;2023-02-12T06:21:03;103659.50;;;13.16;62.43
64889;BME280;51386;53.082;8.816;2023-02-12T06:23:30;103649.97;;;13.13;62.56
64889;BME280;51386;53.082;8.816;2023-02-12T06:25:57;103650.84;;;13.14;62.52
64889;BME280;51386;53.082;8.816;2023-02-12T06:28:24;103650.94;;;13.12;62.37
64889;BME280;51386;53.082;8.816;2023-02-12T06:30:51;103666.81;;;13.12;63.11
64889;BME280;51386;53.082;8.816;2023-02-12T06:33:18;103654.56;;;13.11;62.49
64889;BME280;51386;53.082;8.816;2023-02-12T06:35:47;103661.50;;;13.12;62.60
64889;BME280;51386;53.082;8.816;2023-02-12T06:38:14;103668.50;;;13.13;62.72
64889;BME280;51386;53.082;8.816;2023-02-12T06:40:41;103673.78;;;13.13;62.61
64889;BME280;51386;53.082;8.816;2023-02-12T06:43:08;103671.16;;;13.13;62.74
64889;BME280;51386;53.082;8.816;2023-02-12T06:45:35;103679.78;;;13.15;62.53
64889;BME280;51386;53.082;8.816;2023-02-12T06:48:02;103679.06;;;13.13;62.49
64889;BME280;51386;53.082;8.816;2023-02-12T06:50:30;103680.03;;;13.12;62.69
64889;BME280;51386;53.082;8.816;2023-02-12T06:52:58;103677.50;;;13.11;62.75
64889;BME280;51386;53.082;8.816;2023-02-12T06:55:25;103681.22;;;13.08;62.84
64889;BME280;51386;53.082;8.816;2023-02-12T06:57:52;103682.22;;;13.07;62.89
64889;BME280;51386;53.082;8.816;2023-02-12T07:00:21;103686.53;;;13.08;62.71
64889;BME280;51386;53.082;8.816;2023-02-12T07:02:52;103692.66;;;13.09;62.82
64889;BME280;51386;53.082;8.816;2023-02-12T07:05:21;103694.22;;;13.11;62.75
64889;BME280;51386;53.082;8.816;2023-02-12T07:07:49;103698.31;;;13.15;62.82
64889;BME280;51386;53.082;8.816;2023-02-12T07:10:18;103697.94;;;13.20;62.77
64889;BME280;51386;53.082;8.816;2023-02-12T07:12:45;103696.88;;;13.22;62.90
64889;BME280;51386;53.082;8.816;2023-02-12T07:15:12;103702.78;;;13.26;63.01
64889;BME280;51386;53.082;8.816;2023-02-12T07:17:40;103702.66;;;13.27;62.77
64889;BME280;51386;53.082;8.816;2023-02-12T07:20:08;103699.06;;;13.28;62.77
64889;BME280;51386;53.082;8.816;2023-02-12T07:22:36;103708.66;;;13.29;62.79
64889;BME280;51386;53.082;8.816;2023-02-12T07:25:03;103711.31;;;13.29;62.90
64889;BME280;51386;53.082;8.816;2023-02-12T07:27:35;103714.94;;;13.28;62.61
64889;BME280;51386;53.082;8.816;2023-02-12T07:30:04;103711.31;;;13.29;62.61
64889;BME280;51386;53.082;8.816;2023-02-12T07:32:31;103722.16;;;13.26;62.67
64889;BME280;51386;53.082;8.816;2023-02-12T07:34:59;103711.78;;;13.23;62.64
64889;BME280;51386;53.082;8.816;2023-02-12T07:37:26;103719.00;;;13.21;62.84
64889;BME280;51386;53.082;8.816;2023-02-12T07:39:52;103726.09;;;13.21;62.87
64889;BME280;51386;53.082;8.816;2023-02-12T07:42:19;103728.63;;;13.22;62.59
64889;BME280;51386;53.082;8.816;2023-02-12T07:44:48;103724.31;;;13.21;62.65
64889;BME280;51386;53.082;8.816;2023-02-12T07:47:16;103727.66;;;13.23;62.92
64889;BME280;51386;53.082;8.816;2023-02-12T07:49:43;103726.69;;;13.24;62.92
64889;BME280;51386;53.082;8.816;2023-02-12T07:52:10;103732.72;;;13.26;62.94
64889;BME280;51386;53.082;8.816;2023-02-12T07:54:39;103729.94;;;13.28;62.92
64889;BME280;51386;53.082;8.816;2023-02-12T07:57:06;103736.91;;;13.29;62.73
64889;BME280;51386;53.082;8.816;2023-02-12T07:59:34;103737.75;;;13.29;62.68
64889;BME280;51386;53.082;8.816;2023-02-12T08:02:02;103740.41;;;13.29;62.86
64889;BME280;51386;53.082;8.816;2023-02-12T08:04:29;103738.84;;;13.27;62.83
64889;BME280;51386;53.082;8.816;2023-02-12T08:06:56;103737.16;;;13.26;62.73
64889;BME280;51386;53.082;8.816;2023-02-12T08:09:27;103734.41;;;13.27;62.92
64889;BME280;51386;53.082;8.816;2023-02-12T08:11:56;103736.91;;;13.29;62.79
64889;BME280;51386;53.082;8.816;2023-02-12T08:14:23;103741.13;;;13.31;62.96
64889;BME280;51386;53.082;8.816;2023-02-12T08:16:52;103747.88;;;13.35;63.02
64889;BME280;51386;53.082;8.816;2023-02-12T08:19:21;103743.81;;;13.42;62.88
64889;BME280;51386;53.082;8.816;2023-02-12T08:21:54;103755.81;;;13.46;62.86
64889;BME280;51386;53.082;8.816;2023-02-12T08:24:22;103752.09;;;13.49;62.78
64889;BME280;51386;53.082;8.816;2023-02-12T08:26:49;103756.19;;;13.53;62.42
64889;BME280;51386;53.082;8.816;2023-02-12T08:29:20;103756.19;;;13.53;62.60
64889;BME280;51386;53.082;8.816;2023-02-12T08:31:50;103766.78;;;13.53;62.48
64889;BME280;51386;53.082;8.816;2023-02-12T08:34:24;103767.63;;;13.53;62.54
64889;BME280;51386;53.082;8.816;2023-02-12T08:36:53;103767.38;;;13.56;62.51
64889;BME280;51386;53.082;8.816;2023-02-12T08:39:22;103760.88;;;13.61;62.54
64889;BME280;51386;53.082;8.816;2023-02-12T08:41:50;103773.75;;;13.65;62.60
64889;BME280;51386;53.082;8.816;2023-02-12T08:44:19;103772.81;;;13.66;62.21
64889;BME280;51386;53.082;8.816;2023-02-12T08:46:49;103762.09;;;13.68;62.37
64889;BME280;51386;53.082;8.816;2023-02-12T08:49:19;103763.66;;;13.70;62.13
64889;BME280;51386;53.082;8.816;2023-02-12T08:51:51;103763.78;;;13.69;62.02
64889;BME280;51386;53.082;8.816;2023-02-12T08:54:20;103770.88;;;13.68;62.09
64889;BME280;51386;53.082;8.816;2023-02-12T08:56:48;103768.09;;;13.70;62.07
64889;BME280;51386;53.082;8.816;2023-02-12T08:59:16;103777.75;;;13.71;62.16
64889;BME280;51386;53.082;8.816;2023-02-12T09:01:44;103769.66;;;13.72;62.02
64889;BME280;51386;53.082;8.816;2023-02-12T09:04:16;103776.75;;;13.72;62.03
64889;BME280;51386;53.082;8.816;2023-02-12T09:06:44;103783.75;;;13.73;62.07
64889;BME280;51386;53.082;8.816;2023-02-12T09:09:13;103778.47;;;13.73;61.82
64889;BME280;51386;53.082;8.816;2023-02-12T09:11:41;103777.50;;;13.74;61.97
64889;BME280;51386;53.082;8.816;2023-02-12T09:14:12;103785.31;;;13.75;61.98
64889;BME280;51386;53.082;8.816;2023-02-12T09:16:40;103792.06;;;13.79;62.07
64889;BME280;51386;53.082;8.816;2023-02-12T09:19:10;103789.41;;;13.79;61.91
64889;BME280;51386;53.082;8.816;2023-02-12T09:21:37;103784.72;;;13.83;61.79
64889;BME280;51386;53.082;8.816;2023-02-12T09:24:05;103789.78;;;13.86;61.81
64889;BME280;51386;53.082;8.816;2023-02-12T09:26:33;103789.53;;;13.89;61.64
64889;BME280;51386;53.082;8.816;2023-02-12T09:29:02;103793.75;;;13.91;61.60
64889;BME280;51386;53.082;8.816;2023-02-12T09:31:31;103798.81;;;13.94;61.57
64889;BME280;51386;53.082;8.816;2023-02-12T09:34:02;103802.78;;;14.00;61.53
64889;BME280;51386;53.082;8.816;2023-02-12T09:36:31;103794.56;;;14.03;61.46
64889;BME280;51386;53.082;8.816;2023-02-12T09:38:58;103797.84;;;14.06;61.32
64889;BME280;51386;53.082;8.816;2023-02-12T09:41:45;103801.31;;;14.07;61.58
64889;BME280;51386;53.082;8.816;2023-02-12T09:44:21;103802.75;;;14.11;61.38
64889;BME280;51386;53.082;8.816;2023-02-12T09:46:58;103802.41;;;14.15;61.40
64889;BME280;51386;53.082;8.816;2023-02-12T09:49:47;103812.03;;;14.16;61.13
64889;BME280;51386;53.082;8.816;2023-02-12T09:52:19;103812.38;;;14.23;61.27
64889;BME280;51386;53.082;8.816;2023-02-12T09:54:50;103819.00;;;14.29;61.14
64889;BME280;51386;53.082;8.816;2023-02-12T09:57:24;103817.19;;;14.29;60.91
64889;BME280;51386;53.082;8.816;2023-02-12T09:59:59;103814.09;;;14.35;60.92
64889;BME280;51386;53.082;8.816;2023-02-12T10:02:28;103814.44;;;14.42;61.13
64889;BME280;51386;53.082;8.816;2023-02-12T10:04:56;103813.09;;;14.47;61.02
64889;BME280;51386;53.082;8.816;2023-02-12T10:07:52;103813.91;;;14.48;60.96
64889;BME280;51386;53.082;8.816;2023-02-12T10:10:42;103818.41;;;14.47;60.60
64889;BME280;51386;53.082;8.816;2023-02-12T10:13:26;103826.34;;;14.47;60.42
64889;BME280;51386;53.082;8.816;2023-02-12T10:16:07;103824.28;;;14.51;60.75
64889;BME280;51386;53.082;8.816;2023-02-12T10:18:55;103831.84;;;14.55;60.82
64889;BME280;51386;53.082;8.816;2023-02-12T10:21:39;103822.72;;;14.59;60.61
64889;BME280;51386;53.082;8.816;2023-02-12T10:24:51;103821.00;;;14.58;60.31
64889;BME280;51386;53.082;8.816;2023-02-12T10:27:35;103818.84;;;14.63;60.35
64889;BME280;51386;53.082;8.816;2023-02-12T10:30:17;103815.47;;;14.61;60.29
64889;BME280;51386;53.082;8.816;2023-02-12T10:32:50;103824.59;;;14.68;60.43
64889;BME280;51386;53.082;8.816;2023-02-12T10:35:21;103814.72;;;14.70;60.23
64889;BME280;51386;53.082;8.816;2023-02-12T10:37:56;103817.22;;;14.72;59.88
64889;BME280;51386;53.082;8.816;2023-02-12T10:40:28;103818.69;;;14.76;60.38
64889;BME280;51386;53.082;8.816;2023-02-12T10:43:00;103814.41;;;14.84;60.22
64889;BME280;51386;53.082;8.816;2023-02-12T10:45:32;103818.25;;;14.91;59.98
64889;BME280;51386;53.082;8.816;2023-02-12T10:48:10;103808.72;;;14.89;59.84
64889;BME280;51386;53.082;8.816;2023-02-12T10:50:56;103815.13;;;14.86;59.91
64889;BME280;51386;53.082;8.816;2023-02-12T10:53:33;103810.91;;;14.84;59.26
64889;BME280;51386;53.082;8.816;2023-02-12T10:56:15;103819.25;;;14.79;59.77
64889;BME280;51386;53.082;8.816;2023-02-12T10:58:53;103818.53;;;14.77;60.08
64889;BME280;51386;53.082;8.816;2023-02-12T11:01:25;103812.28;;;14.78;60.21
64889;BME280;51386;53.082;8.816;2023-02-12T11:03:55;103815.38;;;14.83;60.22
64889;BME280;51386;53.082;8.816;2023-02-12T11:06:27;103814.88;;;14.89;59.93
64889;BME280;51386;53.082;8.816;2023-02-12T11:08:57;103816.06;;;14.97;60.22
64889;BME280;51386;53.082;8.816;2023-02-12T11:11:27;103812.88;;;15.03;60.08
64889;BME280;51386;53.082;8.816;2023-02-12T11:13:59;103808.03;;;15.08;60.11
64889;BME280;51386;53.082;8.816;2023-02-12T11:16:33;103814.19;;;15.08;59.86
64889;BME280;51386;53.082;8.816;2023-02-12T11:19:04;103812.50;;;15.07;60.11
64889;BME280;51386;53.082;8.816;2023-02-12T11:21:33;103808.03;;;15.08;59.86
64889;BME280;51386;53.082;8.816;2023-02-12T11:24:25;103803.97;;;15.04;59.85
64889;BME280;51386;53.082;8.816;2023-02-12T11:29:39;103795.69;;;14.97;59.93
64889;BME280;51386;53.082;8.816;2023-02-12T11:32:15;103803.75;;;14.96;59.82
64889;BME280;51386;53.082;8.816;2023-02-12T11:34:42;103801.81;;;14.98;60.10
64889;BME280;51386;53.082;8.816;2023-02-12T11:37:17;103792.88;;;14.99;60.22
64889;BME280;51386;53.082;8.816;2023-02-12T11:39:47;103794.59;;;15.00;60.10
64889;BME280;51386;53.082;8.816;2023-02-12T11:42:19;103798.19;;;14.99;60.01
64889;BME280;51386;53.082;8.816;2023-02-12T11:44:52;103785.88;;;14.98;59.89
64889;BME280;51386;53.082;8.816;2023-02-12T11:47:25;103785.41;;;15.04;59.91
64889;BME280;51386;53.082;8.816;2023-02-12T11:49:56;103786.56;;;15.11;60.01
64889;BME280;51386;53.082;8.816;2023-02-12T11:52:28;103781.25;;;15.11;59.69
64889;BME280;51386;53.082;8.816;2023-02-12T11:55:02;103777.66;;;15.12;59.86
64889;BME280;51386;53.082;8.816;2023-02-12T11:57:38;103784.38;;;15.16;59.89
64889;BME280;51386;53.082;8.816;2023-02-12T12:00:15;103776.59;;;15.24;60.16
64889;BME280;51386;53.082;8.816;2023-02-12T12:02:52;103779.69;;;15.29;59.49
64889;BME280;51386;53.082;8.816;2023-02-12T12:05:26;103773.97;;;15.33;59.48
64889;BME280;51386;53.082;8.816;2023-02-12T12:07:58;103772.88;;;15.36;59.80
64889;BME280;51386;53.082;8.816;2023-02-12T12:10:38;103773.63;;;15.38;59.87
64889;BME280;51386;53.082;8.816;2023-02-12T12:13:14;103773.72;;;15.47;59.57
64889;BME280;51386;53.082;8.816;2023-02-12T12:15:48;103767.84;;;15.53;59.38
64889;BME280;51386;53.082;8.816;2023-02-12T12:18:44;103769.16;;;15.59;58.98
64889;BME280;51386;53.082;8.816;2023-02-12T12:21:38;103761.50;;;15.66;59.25
64889;BME280;51386;53.082;8.816;2023-02-12T12:24:13;103759.38;;;15.69;58.99
64889;BME280;51386;53.082;8.816;2023-02-12T12:26:52;103758.69;;;15.67;59.16
64889;BME280;51386;53.082;8.816;2023-02-12T12:29:41;103762.00;;;15.59;58.71
64889;BME280;51386;53.082;8.816;2023-02-12T12:32:17;103760.44;;;15.57;58.88
64889;BME280;51386;53.082;8.816;2023-02-12T12:34:47;103761.69;;;15.53;59.07
64889;BME280;51386;53.082;8.816;2023-02-12T12:37:33;103755.25;;;15.46;58.63
64889;BME280;51386;53.082;8.816;2023-02-12T12:40:28;103763.72;;;15.40;58.96
64889;BME280;51386;53.082;8.816;2023-02-12T12:43:12;103762.28;;;15.36;58.92
64889;BME280;51386;53.082;8.816;2023-02-12T12:46:15;103753.75;;;15.32;59.00
64889;BME280;51386;53.082;8.816;2023-02-12T12:52:54;103745.69;;;15.43;59.13
64889;BME280;51386;53.082;8.816;2023-02-12T12:56:07;103739.69;;;15.41;59.03
64889;BME280;51386;53.082;8.816;2023-02-12T12:58:53;103745.84;;;15.42;59.09
64889;BME280;51386;53.082;8.816;2023-02-12T13:02:00;103739.78;;;15.30;58.77
64889;BME280;51386;53.082;8.816;2023-02-12T13:04:50;103732.72;;;15.20;58.76
64889;BME280;51386;53.082;8.816;2023-02-12T13:07:46;103732.25;;;15.15;59.17
64889;BME280;51386;53.082;8.816;2023-02-12T13:10:31;103723.72;;;15.11;59.15
64889;BME280;51386;53.082;8.816;2023-02-12T13:13:19;103722.19;;;15.09;58.86
64889;BME280;51386;53.082;8.816;2023-02-12T13:15:58;103723.72;;;15.11;59.09
64889;BME280;51386;53.082;8.816;2023-02-12T13:18:44;103726.38;;;15.11;58.92
64889;BME280;51386;53.082;8.816;2023-02-12T13:21:31;103722.34;;;15.17;59.20
64889;BME280;51386;53.082;8.816;2023-02-12T13:24:06;103731.47;;;15.24;59.08
64889;BME280;51386;53.082;8.816;2023-02-12T13:26:47;103720.75;;;15.25;59.03